Time,TemperatureF,DewpointF,PressureIn,WindDirection,WindDirectionDegrees,WindSpeedMPH,WindSpeedGustMPH,Humidity,HourlyPrecipIn,Conditions,Clouds,dailyrainin,SoftwareType,DateUTC
2013-03-23 00:00:00,36.5,27.3,30.04,NW,319,0.0,5.0,69,0.00,,BKN055,0.00,VWS V14.00,2013-03-23 04:00:00,
2013-03-23 00:10:00,36.6,27.0,30.04,NW,318,2.0,3.0,68,0.00,,BKN055,0.00,VWS V14.00,2013-03-23 04:10:00,
2013-03-23 00:20:00,36.6,27.0,30.04,North,355,3.0,4.0,68,0.00,,BKN055,0.00,VWS V14.00,2013-03-23 04:20:00,
2013-03-23 00:30:00,36.2,27.7,30.03,North,355,2.0,3.0,71,0.00,,BKN055,0.00,VWS V14.00,2013-03-23 04:30:00,
2013-03-23 00:40:00,36.0,28.5,30.03,North,355,1.0,3.0,74,0.00,,BKN055,0.00,VWS V14.00,2013-03-23 04:40:00,
2013-03-23 00:50:00,35.8,27.7,30.04,North,355,2.0,3.0,72,0.00,,BKN055,0.00,VWS V14.00,2013-03-23 04:50:00,
2013-03-23 01:00:00,35.6,28.5,30.03,North,355,2.0,3.0,75,0.00,,BKN055,0.00,VWS V14.00,2013-03-23 05:00:00,
2013-03-23 01:10:00,35.5,27.7,30.04,NNW,347,2.0,4.0,73,0.00,,BKN055,0.00,VWS V14.00,2013-03-23 05:10:00,
2013-03-23 01:20:00,35.5,27.7,30.03,NNW,346,0.0,3.0,73,0.00,,BKN055,0.00,VWS V14.00,2013-03-23 05:20:00,
2013-03-23 01:30:00,35.5,28.0,30.03,NNW,347,0.0,0.0,74,0.00,,BKN055,0.00,VWS V14.00,2013-03-23 05:30:00,
2013-03-23 01:40:00,35.4,27.6,30.03,North,349,4.0,4.0,73,0.00,,BKN055,0.00,VWS V14.00,2013-03-23 05:40:00,
2013-03-23 01:50:00,35.4,28.0,30.03,NNW,345,2.0,4.0,74,0.00,,BKN055,0.00,VWS V14.00,2013-03-23 05:50:00,
2013-03-23 02:00:00,35.4,27.6,30.04,NNW,336,3.0,6.0,73,0.00,,BKN055,0.00,VWS V14.00,2013-03-23 06:00:00,
2013-03-23 02:10:00,35.3,27.9,30.03,NNW,344,5.0,6.0,74,0.00,,BKN055,0.00,VWS V14.00,2013-03-23 06:10:00,
2013-03-23 02:20:00,35.4,27.0,30.03,NNW,334,0.0,6.0,71,0.00,,BKN055,0.00,VWS V14.00,2013-03-23 06:20:00,
2013-03-23 02:30:00,35.6,27.1,30.03,NNW,333,2.0,4.0,71,0.00,,BKN055,0.00,VWS V14.00,2013-03-23 06:30:00,
2013-03-23 02:40:00,35.6,27.5,30.03,NNW,333,0.0,3.0,72,0.00,,BKN055,0.00,VWS V14.00,2013-03-23 06:40:00,
2013-03-23 02:50:00,35.5,27.7,30.03,NNW,333,0.0,0.0,73,0.00,,BKN055,0.00,VWS V14.00,2013-03-23 06:50:00,
2013-03-23 03:00:00,35.3,27.9,30.03,NNW,342,2.0,5.0,74,0.00,,BKN055,0.00,VWS V14.00,2013-03-23 07:00:00,
2013-03-23 03:10:00,35.3,28.2,30.03,NNW,327,1.0,5.0,75,0.00,,BKN055,0.00,VWS V14.00,2013-03-23 07:10:00,
2013-03-23 03:20:00,35.2,28.1,30.02,NNW,330,1.0,3.0,75,0.00,,BKN055,0.00,VWS V14.00,2013-03-23 07:20:00,
2013-03-23 03:30:00,35.2,28.1,30.02,NNW,334,3.0,4.0,75,0.00,,BKN055,0.00,VWS V14.00,2013-03-23 07:30:00,
2013-03-23 03:40:00,35.1,28.0,30.02,NNW,341,3.0,4.0,75,0.00,,BKN055,0.00,VWS V14.00,2013-03-23 07:40:00,
2013-03-23 03:50:00,35.0,28.2,30.01,NNW,342,3.0,5.0,76,0.00,,BKN055,0.00,VWS V14.00,2013-03-23 07:50:00,
2013-03-23 04:00:00,34.8,28.3,30.01,NNW,342,0.0,3.0,77,0.00,,BKN055,0.00,VWS V14.00,2013-03-23 08:00:00,
2013-03-23 04:10:00,34.8,28.3,30.01,NNW,342,0.0,2.0,77,0.00,,BKN055,0.00,VWS V14.00,2013-03-23 08:10:00,
2013-03-23 04:20:00,34.9,28.4,30.01,NNW,342,3.0,4.0,77,0.00,,BKN055,0.00,VWS V14.00,2013-03-23 08:20:00,
2013-03-23 04:30:00,34.9,28.8,30.01,NNW,342,3.0,4.0,78,0.00,,BKN055,0.00,VWS V14.00,2013-03-23 08:30:00,
2013-03-23 04:40:00,34.9,28.4,30.01,NNW,341,3.0,4.0,77,0.00,,BKN055,0.00,VWS V14.00,2013-03-23 08:40:00,
2013-03-23 04:50:00,35.0,28.5,30.00,NNW,342,2.0,3.0,77,0.00,,BKN055,0.00,VWS V14.00,2013-03-23 08:50:00,
2013-03-23 05:00:00,35.0,28.5,30.00,NNW,344,3.0,5.0,77,0.00,,BKN055,0.00,VWS V14.00,2013-03-23 09:00:00,
2013-03-23 05:10:00,35.0,28.5,30.00,NNW,336,4.0,5.0,77,0.00,,BKN055,0.00,VWS V14.00,2013-03-23 09:10:00,
2013-03-23 05:20:00,34.9,28.4,30.00,NNW,336,3.0,4.0,77,0.00,,BKN055,0.00,VWS V14.00,2013-03-23 09:20:00,
2013-03-23 05:30:00,34.9,28.8,30.00,NNW,336,4.0,4.0,78,0.00,,BKN055,0.00,VWS V14.00,2013-03-23 09:30:00,
2013-03-23 05:40:00,35.0,29.2,30.01,NNW,338,3.0,4.0,79,0.00,,BKN055,0.00,VWS V14.00,2013-03-23 09:40:00,
2013-03-23 05:50:00,35.0,28.9,30.00,NNW,342,4.0,5.0,78,0.00,,BKN055,0.00,VWS V14.00,2013-03-23 09:50:00,
2013-03-23 06:00:00,35.0,29.2,30.01,NNW,336,2.0,4.0,79,0.00,,BKN055,0.00,VWS V14.00,2013-03-23 10:00:00,
2013-03-23 06:10:00,34.9,29.1,30.00,NNW,340,3.0,4.0,79,0.00,,BKN055,0.00,VWS V14.00,2013-03-23 10:10:00,
2013-03-23 06:20:00,34.9,29.4,30.01,NNW,329,2.0,4.0,80,0.00,,BKN055,0.00,VWS V14.00,2013-03-23 10:20:00,
2013-03-23 06:30:00,34.9,29.1,30.01,NNW,335,2.0,4.0,79,0.00,,BKN055,0.00,VWS V14.00,2013-03-23 10:30:00,
2013-03-23 06:40:00,34.9,29.1,30.02,NNW,334,2.0,4.0,79,0.00,,BKN055,0.00,VWS V14.00,2013-03-23 10:40:00,
2013-03-23 06:50:00,35.0,29.5,30.02,NNW,329,1.0,5.0,80,0.00,,BKN055,0.00,VWS V14.00,2013-03-23 10:50:00,
2013-03-23 07:00:00,35.0,29.2,30.02,NNW,331,3.0,4.0,79,0.00,,BKN055,0.00,VWS V14.00,2013-03-23 11:00:00,
2013-03-23 07:10:00,35.0,29.2,30.02,NNW,331,0.0,3.0,79,0.00,,BKN055,0.00,VWS V14.00,2013-03-23 11:10:00,
2013-03-23 07:20:00,35.0,29.2,30.02,NNW,331,0.0,0.0,79,0.00,,BKN055,0.00,VWS V14.00,2013-03-23 11:20:00,
2013-03-23 07:30:00,35.1,29.6,30.02,NNW,330,0.0,0.0,80,0.00,,BKN055,0.00,VWS V14.00,2013-03-23 11:30:00,
2013-03-23 07:40:00,35.2,30.0,30.03,NNW,338,3.0,4.0,81,0.00,,BKN055,0.00,VWS V14.00,2013-03-23 11:40:00,
2013-03-23 07:50:00,35.2,29.4,30.03,NNW,338,4.0,5.0,79,0.00,,BKN055,0.00,VWS V14.00,2013-03-23 11:50:00,
2013-03-23 08:00:00,35.2,29.7,30.04,NNW,339,1.0,4.0,80,0.00,,BKN055,0.00,VWS V14.00,2013-03-23 12:00:00,
2013-03-23 08:10:00,35.2,29.7,30.05,NNW,338,2.0,3.0,80,0.00,,BKN055,0.00,VWS V14.00,2013-03-23 12:10:00,
2013-03-23 08:20:00,35.4,29.2,30.05,NNW,339,1.0,3.0,78,0.00,,BKN055,0.00,VWS V14.00,2013-03-23 12:20:00,
2013-03-23 08:30:00,35.7,29.5,30.05,NNW,339,1.0,2.0,78,0.00,,BKN055,0.00,VWS V14.00,2013-03-23 12:30:00,
2013-03-23 08:40:00,35.9,29.1,30.05,NNW,338,1.0,3.0,76,0.00,,BKN055,0.00,VWS V14.00,2013-03-23 12:40:00,
2013-03-23 08:50:00,36.2,29.7,30.06,NNW,338,1.0,3.0,77,0.00,,BKN055,0.00,VWS V14.00,2013-03-23 12:50:00,
2013-03-23 09:00:00,36.4,28.9,30.06,NNW,338,2.0,3.0,74,0.00,,BKN055,0.00,VWS V14.00,2013-03-23 13:00:00,
2013-03-23 09:10:00,36.7,29.2,30.06,NNW,338,2.0,4.0,74,0.00,,BKN055,0.00,VWS V14.00,2013-03-23 13:10:00,
2013-03-23 09:20:00,37.1,28.9,30.06,NNW,345,2.0,4.0,72,0.00,,BKN055,0.00,VWS V14.00,2013-03-23 13:20:00,
2013-03-23 09:30:00,37.6,29.4,30.06,NNW,347,2.0,4.0,72,0.00,,BKN055,0.00,VWS V14.00,2013-03-23 13:30:00,
2013-03-23 09:40:00,38.1,28.1,30.06,NE,42,3.0,4.0,67,0.00,,BKN055,0.00,VWS V14.00,2013-03-23 13:40:00,
2013-03-23 09:50:00,38.7,27.2,30.06,NE,53,3.0,5.0,63,0.00,,BKN055,0.00,VWS V14.00,2013-03-23 13:50:00,
2013-03-23 10:00:00,39.0,27.9,30.06,ENE,63,3.0,5.0,64,0.00,,BKN055,0.00,VWS V14.00,2013-03-23 14:00:00,
2013-03-23 10:10:00,39.1,27.6,30.06,ENE,58,3.0,6.0,63,0.00,,BKN055,0.00,VWS V14.00,2013-03-23 14:10:00,
2013-03-23 10:20:00,39.3,27.8,30.05,NE,56,4.0,7.0,63,0.00,,BKN055,0.00,VWS V14.00,2013-03-23 14:20:00,
2013-03-23 10:30:00,39.6,28.1,30.05,NE,45,5.0,6.0,63,0.00,,BKN055,0.00,VWS V14.00,2013-03-23 14:30:00,
2013-03-23 10:40:00,39.9,29.1,30.05,NE,38,4.0,7.0,65,0.00,,BKN055,0.00,VWS V14.00,2013-03-23 14:40:00,
2013-03-23 10:50:00,40.5,28.9,30.06,ENE,71,3.0,8.0,63,0.00,,BKN055,0.00,VWS V14.00,2013-03-23 14:50:00,
2013-03-23 11:00:00,41.0,29.0,30.05,NE,51,5.0,9.0,62,0.00,,BKN055,0.00,VWS V14.00,2013-03-23 15:00:00,
2013-03-23 11:10:00,41.8,28.5,30.05,ENE,74,2.0,9.0,59,0.00,,BKN055,0.00,VWS V14.00,2013-03-23 15:10:00,
2013-03-23 11:20:00,42.4,29.1,30.05,East,83,3.0,6.0,59,0.00,,BKN055,0.00,VWS V14.00,2013-03-23 15:20:00,
2013-03-23 11:30:00,43.4,28.8,30.04,East,79,3.0,6.0,56,0.00,,BKN055,0.00,VWS V14.00,2013-03-23 15:30:00,
2013-03-23 11:40:00,44.5,29.4,30.04,ENE,78,3.0,6.0,55,0.00,,BKN055,0.00,VWS V14.00,2013-03-23 15:40:00,
2013-03-23 11:50:00,45.0,29.4,30.04,ENE,72,3.0,6.0,54,0.00,,BKN055,0.00,VWS V14.00,2013-03-23 15:50:00,
2013-03-23 12:00:00,45.7,29.6,30.04,ESE,102,3.0,7.0,53,0.00,,BKN055,0.00,VWS V14.00,2013-03-23 16:00:00,
2013-03-23 12:10:00,46.5,28.4,30.04,NE,37,5.0,10.0,49,0.00,,BKN055,0.00,VWS V14.00,2013-03-23 16:10:00,
2013-03-23 12:20:00,46.8,28.2,30.04,NNE,25,5.0,10.0,48,0.00,,BKN055,0.00,VWS V14.00,2013-03-23 16:20:00,
2013-03-23 12:30:00,46.7,29.1,30.04,ENE,63,4.0,10.0,50,0.00,,BKN055,0.00,VWS V14.00,2013-03-23 16:30:00,
2013-03-23 12:40:00,46.9,27.7,30.04,East,90,2.0,6.0,47,0.00,,BKN055,0.00,VWS V14.00,2013-03-23 16:40:00,
2013-03-23 12:50:00,47.8,28.0,30.04,NE,40,5.0,6.0,46,0.00,,BKN055,0.00,VWS V14.00,2013-03-23 16:50:00,
2013-03-23 13:00:00,48.3,30.0,30.03,East,90,2.0,5.0,49,0.00,,BKN055,0.00,VWS V14.00,2013-03-23 17:00:00,
2013-03-23 13:10:00,48.6,28.2,30.03,East,101,4.0,5.0,45,0.00,,BKN055,0.00,VWS V14.00,2013-03-23 17:10:00,
2013-03-23 13:20:00,49.2,29.3,30.03,ESE,119,2.0,5.0,46,0.00,,BKN055,0.00,VWS V14.00,2013-03-23 17:20:00,
2013-03-23 13:30:00,49.6,29.7,30.02,East,95,3.0,5.0,46,0.00,,BKN055,0.00,VWS V14.00,2013-03-23 17:30:00,
2013-03-23 13:40:00,49.8,29.3,30.02,ESE,105,3.0,5.0,45,0.00,,BKN055,0.00,VWS V14.00,2013-03-23 17:40:00,
2013-03-23 13:50:00,50.2,29.1,30.02,ESE,119,2.0,6.0,44,0.00,,BKN055,0.00,VWS V14.00,2013-03-23 17:50:00,
2013-03-23 14:00:00,50.5,30.0,30.01,ESE,105,2.0,4.0,45,0.00,,BKN055,0.00,VWS V14.00,2013-03-23 18:00:00,
2013-03-23 14:10:00,51.0,29.9,30.01,East,94,1.0,4.0,44,0.00,,BKN055,0.00,VWS V14.00,2013-03-23 18:10:00,
2013-03-23 14:20:00,51.1,30.5,30.01,ENE,76,4.0,5.0,45,0.00,,BKN055,0.00,VWS V14.00,2013-03-23 18:20:00,
2013-03-23 14:30:00,51.2,28.9,30.01,SE,132,0.0,4.0,42,0.00,,BKN055,0.00,VWS V14.00,2013-03-23 18:30:00,
2013-03-23 14:40:00,51.5,32.5,30.01,East,91,1.0,4.0,48,0.00,,BKN055,0.00,VWS V14.00,2013-03-23 18:40:00,
2013-03-23 14:50:00,51.7,31.1,30.00,ENE,65,0.0,4.0,45,0.00,,BKN055,0.00,VWS V14.00,2013-03-23 18:50:00,
2013-03-23 15:00:00,51.8,30.6,29.98,NE,51,7.0,8.0,44,0.00,,BKN055,0.00,VWS V14.00,2013-03-23 19:00:00,
2013-03-23 15:10:00,52.2,29.8,29.98,East,89,2.0,8.0,42,0.00,,BKN055,0.00,VWS V14.00,2013-03-23 19:10:00,
2013-03-23 15:20:00,52.0,29.0,29.97,ESE,117,1.0,5.0,41,0.00,,BKN055,0.00,VWS V14.00,2013-03-23 19:20:00,
2013-03-23 15:30:00,52.7,32.5,29.97,East,92,3.0,4.0,46,0.00,,BKN055,0.00,VWS V14.00,2013-03-23 19:30:00,
2013-03-23 15:40:00,52.8,29.8,29.97,East,93,2.0,10.0,41,0.00,,BKN055,0.00,VWS V14.00,2013-03-23 19:40:00,
2013-03-23 15:50:00,52.7,33.6,29.97,East,96,1.0,4.0,48,0.00,,BKN055,0.00,VWS V14.00,2013-03-23 19:50:00,
2013-03-23 16:00:00,52.9,29.9,29.96,ESE,105,3.0,4.0,41,0.00,,BKN055,0.00,VWS V14.00,2013-03-23 20:00:00,
2013-03-23 16:10:00,53.4,30.9,29.96,East,88,1.0,4.0,42,0.00,,BKN055,0.00,VWS V14.00,2013-03-23 20:10:00,
2013-03-23 16:20:00,53.5,28.5,29.95,East,99,0.0,5.0,38,0.00,,BKN055,0.00,VWS V14.00,2013-03-23 20:20:00,
2013-03-23 16:30:00,53.7,30.0,29.95,ESE,105,3.0,4.0,40,0.00,,BKN055,0.00,VWS V14.00,2013-03-23 20:30:00,
2013-03-23 16:40:00,53.8,30.7,29.95,ESE,119,0.0,6.0,41,0.00,,BKN055,0.00,VWS V14.00,2013-03-23 20:40:00,
2013-03-23 16:50:00,53.8,31.3,29.94,East,86,3.0,6.0,42,0.00,,BKN055,0.00,VWS V14.00,2013-03-23 20:50:00,
2013-03-23 17:00:00,53.8,30.7,29.94,East,98,3.0,10.0,41,0.00,,BKN055,0.00,VWS V14.00,2013-03-23 21:00:00,
2013-03-23 17:10:00,53.8,30.7,29.94,East,87,2.0,7.0,41,0.00,,BKN055,0.00,VWS V14.00,2013-03-23 21:10:00,
2013-03-23 17:20:00,53.5,32.7,29.93,ENE,67,4.0,6.0,45,0.00,,BKN055,0.00,VWS V14.00,2013-03-23 21:20:00,
2013-03-23 17:30:00,53.6,31.1,29.93,ENE,71,0.0,10.0,42,0.00,,BKN055,0.00,VWS V14.00,2013-03-23 21:30:00,
2013-03-23 17:40:00,53.3,30.8,29.93,ENE,75,2.0,4.0,42,0.00,,BKN055,0.00,VWS V14.00,2013-03-23 21:40:00,
2013-03-23 17:50:00,53.4,31.5,29.93,NE,51,3.0,6.0,43,0.00,,BKN055,0.00,VWS V14.00,2013-03-23 21:50:00,
2013-03-23 18:00:00,53.2,31.3,29.93,ENE,74,1.0,7.0,43,0.00,,BKN055,0.00,VWS V14.00,2013-03-23 22:00:00,
2013-03-23 18:10:00,53.2,30.1,29.92,NNE,17,4.0,10.0,41,0.00,,BKN055,0.00,VWS V14.00,2013-03-23 22:10:00,
2013-03-23 18:20:00,53.4,31.5,29.92,East,80,0.0,7.0,43,0.00,,BKN055,0.00,VWS V14.00,2013-03-23 22:20:00,
2013-03-23 18:30:00,53.2,32.4,29.93,ENE,60,3.0,7.0,45,0.00,,BKN055,0.00,VWS V14.00,2013-03-23 22:30:00,
2013-03-23 18:40:00,52.9,32.2,29.93,NE,36,6.0,6.0,45,0.00,,BKN055,0.00,VWS V14.00,2013-03-23 22:40:00,
2013-03-23 18:50:00,52.7,31.4,29.93,ENE,68,4.0,10.0,44,0.00,,BKN055,0.00,VWS V14.00,2013-03-23 22:50:00,
2013-03-23 19:00:00,52.3,31.0,29.93,ENE,60,3.0,10.0,44,0.00,,BKN055,0.00,VWS V14.00,2013-03-23 23:00:00,
2013-03-23 19:10:00,51.9,31.2,29.92,NE,54,8.0,9.0,45,0.00,,BKN055,0.00,VWS V14.00,2013-03-23 23:10:00,
2013-03-23 19:20:00,51.3,31.8,29.93,ENE,68,3.0,8.0,47,0.00,,BKN055,0.00,VWS V14.00,2013-03-23 23:20:00,
2013-03-23 19:30:00,50.6,30.1,29.92,ENE,64,3.0,7.0,45,0.00,,BKN055,0.00,VWS V14.00,2013-03-23 23:30:00,
2013-03-23 19:40:00,50.3,29.8,29.93,NE,56,3.0,6.0,45,0.00,,BKN055,0.00,VWS V14.00,2013-03-23 23:40:00,
2013-03-23 19:50:00,49.8,31.4,29.93,ENE,61,3.0,5.0,49,0.00,,BKN055,0.00,VWS V14.00,2013-03-23 23:50:00,
2013-03-23 20:00:00,49.2,30.4,29.93,ENE,61,3.0,5.0,48,0.00,,BKN055,0.00,VWS V14.00,2013-03-24 00:00:00,
2013-03-23 20:10:00,48.9,30.1,29.93,ENE,61,2.0,4.0,48,0.00,,BKN055,0.00,VWS V14.00,2013-03-24 00:10:00,
2013-03-23 20:20:00,48.4,30.1,29.92,ENE,63,2.0,3.0,49,0.00,,BKN055,0.00,VWS V14.00,2013-03-24 00:20:00,
2013-03-23 20:30:00,48.0,29.8,29.92,ENE,63,1.0,3.0,49,0.00,,BKN055,0.00,VWS V14.00,2013-03-24 00:30:00,
2013-03-23 20:40:00,47.7,29.0,29.92,NE,47,2.0,3.0,48,0.00,,BKN055,0.00,VWS V14.00,2013-03-24 00:40:00,
2013-03-23 20:50:00,47.2,28.5,29.92,NE,48,0.0,3.0,48,0.00,,BKN055,0.00,VWS V14.00,2013-03-24 00:50:00,
2013-03-23 21:00:00,46.8,29.6,29.91,NE,49,0.0,3.0,51,0.00,,BKN055,0.00,VWS V14.00,2013-03-24 01:00:00,
2013-03-23 21:10:00,46.0,28.9,29.91,NE,49,3.0,3.0,51,0.00,,BKN055,0.00,VWS V14.00,2013-03-24 01:10:00,
2013-03-23 21:20:00,45.3,29.2,29.90,NE,40,2.0,3.0,53,0.00,,BKN055,0.00,VWS V14.00,2013-03-24 01:20:00,
2013-03-23 21:30:00,44.9,29.3,29.91,NE,40,1.0,3.0,54,0.00,,BKN055,0.00,VWS V14.00,2013-03-24 01:30:00,
2013-03-23 21:40:00,44.2,29.1,29.90,NE,40,0.0,1.0,55,0.00,,BKN055,0.00,VWS V14.00,2013-03-24 01:40:00,
2013-03-23 21:50:00,44.3,28.7,29.90,NE,41,2.0,7.0,54,0.00,,BKN055,0.00,VWS V14.00,2013-03-24 01:50:00,
2013-03-23 22:00:00,44.7,28.6,29.89,NNE,30,4.0,5.0,53,0.00,,BKN055,0.00,VWS V14.00,2013-03-24 02:00:00,
2013-03-23 22:10:00,44.4,28.8,29.89,NE,34,2.0,5.0,54,0.00,,BKN055,0.00,VWS V14.00,2013-03-24 02:10:00,
2013-03-23 22:20:00,44.3,28.3,29.88,NNE,26,2.0,5.0,53,0.00,,BKN055,0.00,VWS V14.00,2013-03-24 02:20:00,
2013-03-23 22:30:00,44.1,28.5,29.89,NE,40,2.0,4.0,54,0.00,,BKN055,0.00,VWS V14.00,2013-03-24 02:30:00,
2013-03-23 22:40:00,43.8,28.2,29.88,NNE,26,3.0,5.0,54,0.00,,BKN055,0.00,VWS V14.00,2013-03-24 02:40:00,
2013-03-23 22:50:00,43.4,28.3,29.88,NNE,26,2.0,3.0,55,0.00,,BKN055,0.00,VWS V14.00,2013-03-24 02:50:00,
2013-03-23 23:00:00,42.9,27.9,29.87,NE,44,2.0,4.0,55,0.00,,BKN055,0.00,VWS V14.00,2013-03-24 03:00:00,
2013-03-23 23:10:00,42.6,28.0,29.86,NNE,20,3.0,5.0,56,0.00,,BKN055,0.00,VWS V14.00,2013-03-24 03:10:00,
2013-03-23 23:20:00,42.7,28.1,29.85,NNE,30,1.0,4.0,56,0.00,,BKN055,0.00,VWS V14.00,2013-03-24 03:20:00,
2013-03-23 23:30:00,42.6,28.5,29.86,NE,38,2.0,5.0,57,0.00,,BKN055,0.00,VWS V14.00,2013-03-24 03:30:00,
2013-03-23 23:40:00,42.7,28.1,29.85,NNE,27,3.0,5.0,56,0.00,,BKN055,0.00,VWS V14.00,2013-03-24 03:40:00,
2013-03-23 23:50:00,42.8,28.2,29.85,NNE,33,2.0,7.0,56,0.00,,BKN055,0.00,VWS V14.00,2013-03-24 03:50:00,